PST,Max TemperatureF,Mean TemperatureF,Min TemperatureF,Max Dew PointF,MeanDew PointF,Min DewpointF,Max Humidity, Mean Humidity, Min Humidity, Max Sea Level PressureIn, Mean Sea Level PressureIn, Min Sea Level PressureIn, Max VisibilityMiles, Mean VisibilityMiles, Min VisibilityMiles, Max Wind SpeedMPH, Mean Wind SpeedMPH, Max Gust SpeedMPH,PrecipitationIn, CloudCover, Events, WindDirDegrees
2013-12-1,72,54,35,45,40,34,92,64,35,30.37,30.29,30.23,10,10,8,6,0,7,0.00,0,,-1
2013-12-2,61,48,35,50,42,34,100,80,60,30.26,30.13,29.94,10,8,0,15,3,21,T,4,Fog,321
2013-12-3,54,44,33,43,31,26,75,55,35,29.99,29.92,29.87,10,10,10,17,7,23,0.00,2,,332
2013-12-4,52,38,24,28,24,21,88,61,33,30.11,30.04,29.99,10,10,8,7,1,9,0.00,0,,230
2013-12-5,50,36,21,25,21,18,88,61,33,30.18,30.13,30.09,10,10,9,6,0,7,0.00,0,,225
2013-12-6,39,30,20,34,27,17,96,75,54,30.19,30.05,29.93,10,5,0,13,1,18,0.49,6,Fog-Rain-Snow,272
2013-12-7,43,34,25,32,27,20,100,70,39,30.28,30.06,29.94,10,6,0,22,5,29,0.00,3,Fog,335
2013-12-8,45,33,20,24,21,17,92,63,33,30.36,30.30,30.25,10,10,6,8,1,10,0.00,0,,318
2013-12-9,53,36,18,25,22,17,92,60,28,30.45,30.39,30.35,10,9,4,7,2,9,0.00,0,,319
2013-12-10,55,38,21,29,24,19,92,60,28,30.44,30.32,30.22,10,9,7,7,1,8,0.00,0,,315
2013-12-11,60,42,24,30,27,22,92,62,31,30.27,30.23,30.17,10,9,7,7,1,8,0.00,0,,316
2013-12-12,62,44,25,32,28,23,92,59,25,30.30,30.24,30.16,10,9,4,7,1,8,0.00,0,,289
2013-12-13,61,44,26,38,30,24,92,62,32,30.36,30.30,30.26,10,9,6,6,1,7,0.00,0,,282
2013-12-14,64,46,27,38,33,25,92,66,39,30.43,30.37,30.31,10,9,4,6,0,7,0.00,0,,290
2013-12-15,66,47,27,36,31,26,92,60,28,30.39,30.33,30.25,10,9,7,5,0,7,0.00,0,,345
2013-12-16,69,49,29,37,32,27,92,60,28,30.27,30.21,30.12,10,9,5,5,1,7,0.00,0,,291
2013-12-17,67,48,29,37,32,27,92,60,28,30.22,30.14,30.06,10,9,6,6,0,6,0.00,0,,260
2013-12-18,64,47,29,40,33,27,92,62,32,30.06,29.92,29.81,10,10,8,18,4,24,0.00,0,,3
2013-12-19,59,44,29,35,29,23,82,54,25,29.99,29.86,29.77,10,10,7,18,4,25,0.00,0,,338
2013-12-20,63,45,27,33,26,19,85,54,22,30.06,30.02,29.98,10,10,10,10,2,13,0.00,0,,287
2013-12-21,64,50,35,44,40,32,92,68,44,30.14,30.06,30.01,10,10,7,12,3,17,0.00,0,,315
2013-12-22,69,50,30,43,37,30,100,69,37,30.31,30.23,30.15,10,9,7,6,1,7,0.00,0,,321
2013-12-23,69,50,30,43,36,29,92,62,32,30.43,30.36,30.31,10,10,8,7,1,8,0.00,0,,291
2013-12-24,69,50,31,40,36,33,92,64,35,30.38,30.30,30.22,10,10,5,8,1,9,0.00,0,,317
2013-12-25,66,46,26,32,29,24,92,59,26,30.35,30.28,30.22,10,10,7,7,1,7,0.00,0,,309
2013-12-26,67,47,26,31,27,23,85,55,24,30.31,30.25,30.17,10,10,7,6,0,9,0.00,0,,275
2013-12-27,55,41,27,33,28,24,85,63,41,30.29,30.22,30.17,10,9,5,6,0,6,0.00,0,,65
2013-12-28,65,45,24,31,27,22,92,59,26,30.21,30.14,30.06,10,9,6,5,0,6,0.00,0,,314
2013-12-29,67,46,25,28,25,22,85,53,20,30.21,30.16,30.09,10,10,7,8,1,8,0.00,0,,319
2013-12-30,68,47,26,29,25,22,78,49,19,30.27,30.22,30.17,10,10,9,9,1,12,0.00,0,,219
2013-12-31,66,49,31,31,28,24,82,53,23,30.28,30.22,30.16,10,9,6,6,1,7,0.00,0,,312